Time;durP1;ratioP1;P1;durP2;ratioP2;P2;SDS_P1;SDS_P2;PMS_P1;PMS_P2;Temp;Humidity;BMP_temperature;BMP_pressure;BME280_temperature;BME280_humidity;BME280_pressure;Samples;Min_cycle;Max_cycle;Signal;HPM_P1;HPM_P2
2023/04/28 00:00:25;;;;;;;12.30;10.15;;;11.30;99.90;;;;;;5114746;28;20188;-59
2023/04/28 00:02:51;;;;;;;12.68;10.45;;;11.20;99.90;;;;;;5114626;28;20169;-58
2023/04/28 00:05:17;;;;;;;15.23;9.90;;;11.20;99.90;;;;;;5114561;28;20675;-59
2023/04/28 00:07:43;;;;;;;11.48;10.20;;;11.20;99.90;;;;;;5114307;28;20226;-59
2023/04/28 00:10:09;;;;;;;11.98;9.77;;;11.10;99.90;;;;;;5114444;28;20237;-59
2023/04/28 00:12:34;;;;;;;11.15;9.77;;;11.10;99.90;;;;;;5114399;28;20173;-58
2023/04/28 00:15:00;;;;;;;12.60;9.70;;;11.20;99.90;;;;;;5114735;28;20264;-58
2023/04/28 00:17:26;;;;;;;10.18;8.90;;;11.10;99.90;;;;;;5114454;28;20173;-59
2023/04/28 00:19:52;;;;;;;10.65;8.85;;;11.20;99.90;;;;;;5114474;28;20634;-59
2023/04/28 00:22:18;;;;;;;10.35;9.05;;;11.10;99.90;;;;;;5114249;28;20196;-59
2023/04/28 00:24:44;;;;;;;13.05;10.90;;;11.20;99.90;;;;;;5113999;28;20209;-59
2023/04/28 00:27:10;;;;;;;11.00;9.88;;;11.30;99.90;;;;;;5095903;28;20547;-59
2023/04/28 00:29:35;;;;;;;12.95;10.80;;;11.20;99.90;;;;;;5114223;28;20590;-59
2023/04/28 00:32:02;;;;;;;12.32;10.38;;;11.30;99.90;;;;;;5114110;28;20177;-58
2023/04/28 00:34:32;;;;;;;13.60;12.20;;;11.20;99.90;;;;;;5114215;28;20177;-59
2023/04/28 00:36:57;;;;;;;12.07;10.63;;;11.20;99.90;;;;;;5113982;28;20178;-59
2023/04/28 00:39:24;;;;;;;12.88;9.80;;;11.20;99.90;;;;;;5113904;28;20182;-59
2023/04/28 00:41:50;;;;;;;9.48;8.57;;;11.20;99.90;;;;;;5114050;28;20195;-59
2023/04/28 00:44:16;;;;;;;11.93;9.07;;;11.20;99.90;;;;;;5113871;28;20174;-59
2023/04/28 00:46:42;;;;;;;11.45;9.60;;;11.20;99.90;;;;;;5113979;28;20208;-59
2023/04/28 00:49:08;;;;;;;14.55;9.88;;;11.20;99.90;;;;;;5113950;28;20305;-59
2023/04/28 00:51:34;;;;;;;11.85;9.70;;;11.20;99.90;;;;;;5113778;28;20180;-58
2023/04/28 00:54:00;;;;;;;13.25;10.40;;;11.20;99.90;;;;;;5113627;28;20181;-59
2023/04/28 00:56:29;;;;;;;13.93;10.00;;;11.30;99.90;;;;;;5113988;28;20532;-58
2023/04/28 00:58:56;;;;;;;11.48;9.75;;;11.30;99.90;;;;;;5113809;28;20518;-59
2023/04/28 01:01:21;;;;;;;11.23;10.00;;;11.30;99.90;;;;;;5113620;28;20628;-59
2023/04/28 01:03:47;;;;;;;11.70;9.75;;;11.30;99.90;;;;;;5113572;28;20202;-59
2023/04/28 01:06:15;;;;;;;10.95;9.82;;;11.20;99.90;;;;;;5113602;28;20236;-59
2023/04/28 01:08:41;;;;;;;13.13;10.38;;;11.20;99.90;;;;;;5113520;28;20267;-59
2023/04/28 01:11:09;;;;;;;11.27;9.02;;;11.30;99.90;;;;;;5113658;28;20204;-59
2023/04/28 01:13:35;;;;;;;14.02;9.98;;;11.30;99.90;;;;;;5113609;28;20177;-59
2023/04/28 01:16:00;;;;;;;13.07;10.65;;;11.40;99.90;;;;;;5113580;28;20180;-59
2023/04/28 01:18:26;;;;;;;11.63;9.85;;;11.40;99.90;;;;;;5117184;28;20184;-58
2023/04/28 01:20:52;;;;;;;13.63;10.38;;;11.20;99.90;;;;;;5117798;28;20176;-59
2023/04/28 01:23:18;;;;;;;12.50;10.13;;;11.20;99.90;;;;;;5117524;28;20259;-58
2023/04/28 01:25:43;;;;;;;12.35;9.88;;;11.20;99.90;;;;;;5117437;28;20209;-59
2023/04/28 01:28:09;;;;;;;15.57;10.30;;;11.20;99.90;;;;;;5117624;28;20223;-59
2023/04/28 01:30:35;;;;;;;12.13;9.95;;;11.20;99.90;;;;;;5117518;28;20569;-58
2023/04/28 01:33:02;;;;;;;14.23;10.90;;;11.30;99.90;;;;;;5117530;28;20184;-59
2023/04/28 01:35:28;;;;;;;11.88;10.68;;;11.30;99.90;;;;;;5117445;28;20188;-58
2023/04/28 01:37:53;;;;;;;11.77;10.40;;;11.20;99.90;;;;;;5117258;28;20169;-59
2023/04/28 01:40:19;;;;;;;12.57;10.30;;;11.10;99.90;;;;;;5117409;28;20177;-59
2023/04/28 01:42:45;;;;;;;12.35;10.10;;;11.10;99.90;;;;;;5117454;28;20180;-59
2023/04/28 01:45:11;;;;;;;12.93;11.05;;;11.10;99.90;;;;;;5117463;28;20238;-58
2023/04/28 01:47:37;;;;;;;14.23;10.93;;;11.00;99.90;;;;;;5117043;28;20185;-59
2023/04/28 01:50:03;;;;;;;13.32;11.13;;;10.90;99.90;;;;;;5117064;28;20552;-58
2023/04/28 01:52:29;;;;;;;14.60;11.48;;;10.80;99.90;;;;;;5116984;28;20173;-58
2023/04/28 01:54:55;;;;;;;14.82;11.55;;;10.80;99.90;;;;;;5117280;28;20181;-59
2023/04/28 01:57:21;;;;;;;12.07;10.88;;;10.80;99.90;;;;;;5117024;28;20520;-59
2023/04/28 01:59:47;;;;;;;14.13;11.75;;;10.70;99.90;;;;;;5117075;28;20188;-58
2023/04/28 02:02:13;;;;;;;14.63;11.23;;;10.70;99.90;;;;;;5116978;28;20169;-59
2023/04/28 02:04:38;;;;;;;12.32;10.68;;;10.60;99.90;;;;;;5116773;28;20209;-58
2023/04/28 02:07:05;;;;;;;12.20;11.00;;;10.60;99.90;;;;;;5116722;28;20166;-58
2023/04/28 02:09:31;;;;;;;14.40;11.88;;;10.70;99.90;;;;;;5116850;28;20181;-59
2023/04/28 02:11:58;;;;;;;13.57;11.88;;;10.70;99.90;;;;;;5116858;28;20188;-59
2023/04/28 02:14:24;;;;;;;12.05;10.75;;;10.70;99.90;;;;;;5117000;28;20181;-58
2023/04/28 02:16:50;;;;;;;13.77;11.98;;;10.70;99.90;;;;;;5116805;28;20225;-59
2023/04/28 02:19:16;;;;;;;13.90;11.55;;;10.70;99.90;;;;;;5116931;28;20181;-59
2023/04/28 02:21:42;;;;;;;14.18;11.68;;;10.70;99.90;;;;;;5116455;28;20174;-59
2023/04/28 02:24:07;;;;;;;12.63;11.32;;;10.70;99.90;;;;;;5116538;28;20182;-59
2023/04/28 02:26:34;;;;;;;14.90;12.68;;;10.80;99.90;;;;;;5116547;28;20196;-59
2023/04/28 02:29:00;;;;;;;13.88;11.88;;;10.80;99.90;;;;;;5114976;28;20169;-59
2023/04/28 02:31:26;;;;;;;15.73;12.30;;;10.80;99.90;;;;;;5116464;28;20180;-59
2023/04/28 02:33:52;;;;;;;13.05;11.55;;;10.80;99.90;;;;;;5116247;28;20252;-59
2023/04/28 02:36:17;;;;;;;13.07;11.68;;;10.80;99.90;;;;;;5116288;28;20230;-58
2023/04/28 02:38:43;;;;;;;13.20;11.80;;;10.90;99.90;;;;;;5116412;28;20711;-59
2023/04/28 02:41:10;;;;;;;13.40;11.60;;;11.00;99.90;;;;;;5116366;28;20173;-59
2023/04/28 02:43:36;;;;;;;14.48;12.05;;;11.00;99.90;;;;;;5116206;28;20539;-59
2023/04/28 02:46:03;;;;;;;13.50;12.10;;;11.00;99.90;;;;;;5116015;28;20201;-59
2023/04/28 02:48:29;;;;;;;13.38;11.77;;;11.00;99.90;;;;;;5115980;28;20232;-59
2023/04/28 02:50:55;;;;;;;14.05;12.38;;;11.00;99.90;;;;;;5115906;28;20670;-59
2023/04/28 02:53:21;;;;;;;16.40;12.13;;;11.00;99.90;;;;;;5116078;28;20674;-58
2023/04/28 02:55:47;;;;;;;14.13;11.77;;;11.00;99.90;;;;;;5115896;28;20177;-59
2023/04/28 02:58:13;;;;;;;14.85;12.15;;;11.00;99.90;;;;;;5115871;28;20173;-58
2023/04/28 03:00:39;;;;;;;15.35;13.27;;;11.10;99.90;;;;;;5115673;28;20226;-59
2023/04/28 03:03:04;;;;;;;13.85;12.40;;;11.10;99.90;;;;;;5115855;28;20299;-59
2023/04/28 03:05:30;;;;;;;14.50;12.75;;;11.10;99.90;;;;;;5097381;28;20294;-59
2023/04/28 03:07:56;;;;;;;14.68;12.63;;;11.20;99.90;;;;;;5097524;28;20647;-58
2023/04/28 03:10:22;;;;;;;14.73;12.63;;;11.10;99.90;;;;;;5115523;28;20176;-58
2023/04/28 03:12:47;;;;;;;14.65;12.50;;;11.10;99.90;;;;;;5115639;28;20257;-59
2023/04/28 03:15:13;;;;;;;14.38;12.13;;;11.10;99.90;;;;;;5115733;28;20181;-58
2023/04/28 03:17:40;;;;;;;13.73;11.65;;;11.10;99.90;;;;;;5115456;28;20539;-58
2023/04/28 03:20:08;;;;;;;13.68;12.27;;;11.10;99.90;;;;;;5115248;28;20183;-59
2023/04/28 03:22:34;;;;;;;14.45;12.95;;;11.20;99.90;;;;;;5115508;28;20185;-58
2023/04/28 03:25:00;;;;;;;15.70;12.88;;;11.20;99.90;;;;;;5115414;28;20205;-59
2023/04/28 03:27:26;;;;;;;13.85;12.30;;;11.20;99.90;;;;;;5115351;28;20177;-58
2023/04/28 03:29:52;;;;;;;14.50;12.80;;;11.20;99.90;;;;;;5115474;28;20212;-59
2023/04/28 03:32:17;;;;;;;15.38;13.10;;;11.20;99.90;;;;;;5115217;28;20627;-58
2023/04/28 03:34:43;;;;;;;16.17;12.55;;;11.10;99.90;;;;;;5115076;28;20517;-59
2023/04/28 03:37:09;;;;;;;15.40;12.40;;;11.10;99.90;;;;;;5115204;28;20632;-59
2023/04/28 03:39:35;;;;;;;14.85;12.75;;;11.10;99.90;;;;;;5114866;28;20695;-58
2023/04/28 03:42:01;;;;;;;16.45;13.38;;;11.10;99.90;;;;;;5096592;28;20166;-59
2023/04/28 03:44:26;;;;;;;15.95;13.45;;;11.00;99.90;;;;;;5115160;28;20212;-59
2023/04/28 03:46:52;;;;;;;16.95;14.32;;;10.90;99.90;;;;;;5115071;28;20168;-58
2023/04/28 03:49:18;;;;;;;18.83;15.00;;;10.90;99.90;;;;;;5114653;28;20236;-58
2023/04/28 03:51:43;;;;;;;15.50;13.63;;;11.00;99.90;;;;;;5115029;28;20649;-59
2023/04/28 03:54:09;;;;;;;19.10;15.20;;;11.00;99.90;;;;;;5115066;28;20169;-59
2023/04/28 03:56:35;;;;;;;17.05;14.98;;;11.00;99.90;;;;;;5114590;28;20184;-59
2023/04/28 03:59:00;;;;;;;16.08;14.30;;;11.00;99.90;;;;;;5114572;28;20165;-59
2023/04/28 04:01:26;;;;;;;17.67;15.13;;;11.10;99.90;;;;;;5114672;28;20169;-59
2023/04/28 04:03:52;;;;;;;18.90;15.55;;;11.10;99.90;;;;;;5114460;28;20174;-58
2023/04/28 04:06:17;;;;;;;17.92;15.45;;;11.10;99.90;;;;;;5114541;28;20205;-59
2023/04/28 04:08:43;;;;;;;16.50;14.75;;;11.10;99.90;;;;;;5096479;28;20590;-59
2023/04/28 04:11:09;;;;;;;17.77;15.90;;;11.20;99.90;;;;;;5114629;28;20201;-59
2023/04/28 04:13:34;;;;;;;17.95;16.15;;;11.10;99.90;;;;;;5114500;28;20281;-59
2023/04/28 04:16:00;;;;;;;18.80;15.48;;;11.10;99.90;;;;;;5114440;28;20221;-59
2023/04/28 04:18:26;;;;;;;17.70;15.63;;;11.00;99.90;;;;;;5114196;28;20260;-59
2023/04/28 04:20:56;;;;;;;18.48;16.20;;;11.00;99.90;;;;;;5114406;28;20200;-59
2023/04/28 04:23:22;;;;;;;18.65;16.70;;;11.00;99.90;;;;;;5114475;28;20173;-59
2023/04/28 04:25:48;;;;;;;19.38;17.10;;;10.90;99.90;;;;;;5114241;28;20209;-58
2023/04/28 04:28:14;;;;;;;19.23;17.23;;;10.90;99.90;;;;;;5114323;28;20169;-57
2023/04/28 04:30:40;;;;;;;18.92;16.30;;;10.90;99.90;;;;;;5113906;28;20188;-58
2023/04/28 04:33:05;;;;;;;21.45;17.85;;;10.90;99.90;;;;;;5113905;28;20165;-57
2023/04/28 04:35:31;;;;;;;19.27;17.10;;;10.80;99.90;;;;;;5114216;28;20236;-58
2023/04/28 04:37:57;;;;;;;24.73;19.92;;;10.80;99.90;;;;;;5113888;28;20173;-58
2023/04/28 04:40:23;;;;;;;27.33;22.73;;;10.70;99.90;;;;;;5113050;28;20196;-58
2023/04/28 04:42:48;;;;;;;22.85;20.45;;;10.70;99.90;;;;;;5113791;28;20644;-58
2023/04/28 04:45:14;;;;;;;24.10;21.60;;;10.80;99.90;;;;;;5113949;28;20270;-58
2023/04/28 04:47:40;;;;;;;21.08;18.45;;;10.90;99.90;;;;;;5095766;28;20180;-58
2023/04/28 04:50:07;;;;;;;20.92;18.38;;;10.90;99.90;;;;;;5114071;28;20311;-58
2023/04/28 04:52:32;;;;;;;21.67;19.38;;;10.90;99.90;;;;;;5094763;28;20177;-57
2023/04/28 04:54:58;;;;;;;22.48;20.15;;;10.90;99.90;;;;;;5113832;28;20537;-58
2023/04/28 04:57:24;;;;;;;20.83;18.73;;;11.00;99.90;;;;;;5113370;28;20271;-58
2023/04/28 04:59:50;;;;;;;20.95;18.70;;;11.00;99.90;;;;;;5095528;28;20273;-58
2023/04/28 05:02:16;;;;;;;20.02;17.92;;;11.00;99.90;;;;;;5113465;28;20174;-58
2023/04/28 05:04:42;;;;;;;21.27;18.30;;;11.00;99.90;;;;;;5113613;28;20204;-59
2023/04/28 05:07:07;;;;;;;20.58;18.13;;;11.10;99.90;;;;;;5113579;28;20174;-59
2023/04/28 05:09:33;;;;;;;22.77;19.20;;;11.10;99.90;;;;;;5095491;28;20188;-59
2023/04/28 05:11:59;;;;;;;20.60;18.00;;;11.10;99.90;;;;;;5113461;28;20675;-59
2023/04/28 05:14:25;;;;;;;21.50;18.83;;;11.10;99.90;;;;;;5113394;28;20275;-59
2023/04/28 05:16:51;;;;;;;20.83;17.77;;;11.10;99.90;;;;;;5113308;28;20254;-58
2023/04/28 05:19:17;;;;;;;20.42;18.13;;;11.20;99.90;;;;;;5113638;28;20176;-59
2023/04/28 05:21:43;;;;;;;21.88;19.45;;;11.20;99.90;;;;;;5113552;28;20165;-59
2023/04/28 05:24:08;;;;;;;21.15;18.85;;;11.30;99.90;;;;;;5113675;28;20177;-59
2023/04/28 05:26:35;;;;;;;21.13;18.30;;;11.30;99.90;;;;;;5113497;28;20264;-59
2023/04/28 05:29:01;;;;;;;22.27;18.85;;;11.20;99.90;;;;;;5113407;28;20169;-59
2023/04/28 05:31:26;;;;;;;21.15;18.83;;;11.20;99.90;;;;;;5113268;28;20173;-58
2023/04/28 05:33:52;;;;;;;22.48;19.02;;;11.20;99.90;;;;;;5113307;28;20204;-59
2023/04/28 05:36:18;;;;;;;23.85;20.08;;;11.30;99.90;;;;;;5113276;28;20227;-58
2023/04/28 05:38:43;;;;;;;21.30;19.00;;;11.30;99.90;;;;;;5113473;28;20227;-59
2023/04/28 05:41:09;;;;;;;21.15;18.95;;;11.30;99.90;;;;;;5113149;28;20170;-58
2023/04/28 05:43:35;;;;;;;20.25;18.08;;;11.40;99.90;;;;;;5113061;28;20233;-58
2023/04/28 05:46:01;;;;;;;21.70;18.48;;;11.40;99.90;;;;;;5112905;28;20586;-59
2023/04/28 05:48:27;;;;;;;20.38;18.10;;;11.40;99.90;;;;;;5112653;28;20231;-58
2023/04/28 05:50:52;;;;;;;20.10;17.90;;;11.40;99.90;;;;;;5113079;28;20188;-59
2023/04/28 05:53:19;;;;;;;21.20;18.40;;;11.50;99.90;;;;;;5113309;28;20186;-59
2023/04/28 05:55:44;;;;;;;23.48;18.88;;;11.50;99.90;;;;;;5112914;28;20229;-59
2023/04/28 05:58:10;;;;;;;21.15;18.95;;;11.50;99.90;;;;;;5094810;28;20542;-59
2023/04/28 06:00:37;;;;;;;23.65;19.77;;;11.50;99.90;;;;;;5112724;28;20242;-58
2023/04/28 06:03:02;;;;;;;21.17;18.98;;;11.50;99.90;;;;;;5113669;28;20569;-58
2023/04/28 06:05:28;;;;;;;20.67;18.52;;;11.50;99.90;;;;;;5116572;28;20201;-58
2023/04/28 06:07:54;;;;;;;20.35;17.95;;;11.50;99.90;;;;;;5116722;28;20260;-58
2023/04/28 06:10:21;;;;;;;22.52;20.05;;;11.60;99.90;;;;;;5116652;28;20210;-58
2023/04/28 06:12:47;;;;;;;24.00;19.52;;;11.50;99.90;;;;;;5116510;28;20566;-58
2023/04/28 06:15:13;;;;;;;25.38;21.00;;;11.50;99.90;;;;;;5116361;28;20226;-58
2023/04/28 06:17:38;;;;;;;23.40;20.90;;;11.60;99.90;;;;;;5116685;28;20532;-58
2023/04/28 06:20:06;;;;;;;26.05;23.23;;;11.60;99.90;;;;;;5116310;28;20223;-60
2023/04/28 06:22:32;;;;;;;25.65;22.85;;;11.60;99.90;;;;;;5116425;28;20169;-58
2023/04/28 06:24:57;;;;;;;27.52;22.30;;;11.50;99.90;;;;;;5116047;28;20590;-58
2023/04/28 06:27:23;;;;;;;26.15;22.45;;;11.50;99.90;;;;;;5116203;28;20181;-58
2023/04/28 06:29:49;;;;;;;25.75;21.88;;;11.60;99.90;;;;;;5116055;28;20307;-58
2023/04/28 06:32:15;;;;;;;23.60;21.00;;;11.70;99.90;;;;;;5116307;28;20165;-58
2023/04/28 06:34:41;;;;;;;23.60;20.90;;;11.70;99.90;;;;;;5116188;28;20175;-58
2023/04/28 06:37:06;;;;;;;24.15;21.50;;;11.70;99.90;;;;;;5116159;28;20244;-58
2023/04/28 06:39:32;;;;;;;27.38;24.30;;;11.80;99.90;;;;;;5116041;28;20261;-58
2023/04/28 06:41:58;;;;;;;30.13;26.88;;;11.90;99.90;;;;;;5115909;28;20212;-58
2023/04/28 06:44:23;;;;;;;26.25;22.38;;;11.90;99.90;;;;;;5115626;28;20181;-58
2023/04/28 06:46:49;;;;;;;23.63;20.88;;;12.10;99.90;;;;;;5116038;28;20624;-58
2023/04/28 06:49:15;;;;;;;24.13;20.02;;;12.10;99.90;;;;;;5115842;28;20233;-58
2023/04/28 06:51:40;;;;;;;24.98;19.85;;;12.20;99.90;;;;;;5097754;28;20627;-58
2023/04/28 06:54:06;;;;;;;23.20;20.27;;;12.30;99.90;;;;;;5115985;28;20173;-58
2023/04/28 06:56:32;;;;;;;23.48;19.38;;;12.40;99.90;;;;;;5115892;28;20178;-58
2023/04/28 06:58:58;;;;;;;22.65;20.08;;;12.50;99.90;;;;;;5115801;28;20177;-58
2023/04/28 07:01:24;;;;;;;20.25;18.08;;;12.60;99.90;;;;;;5115935;28;20189;-58
2023/04/28 07:03:50;;;;;;;20.45;18.13;;;12.70;99.90;;;;;;5115851;28;20174;-58
2023/04/28 07:06:16;;;;;;;19.85;17.75;;;12.80;99.90;;;;;;5115704;28;20224;-58
2023/04/28 07:08:43;;;;;;;20.88;17.75;;;12.80;99.90;;;;;;5115583;28;20188;-58
2023/04/28 07:11:08;;;;;;;19.10;16.90;;;13.00;99.90;;;;;;5115592;28;20174;-58
2023/04/28 07:13:34;;;;;;;19.48;17.38;;;13.00;99.90;;;;;;5115526;28;20176;-58
2023/04/28 07:16:00;;;;;;;20.83;17.55;;;13.10;99.90;;;;;;5114842;28;20531;-58
2023/04/28 07:18:26;;;;;;;20.05;17.42;;;13.10;99.90;;;;;;5115340;28;20666;-58
2023/04/28 07:20:52;;;;;;;17.98;15.95;;;13.10;99.90;;;;;;5115549;28;20173;-58
2023/04/28 07:23:17;;;;;;;20.35;17.27;;;13.20;99.90;;;;;;5115493;28;20192;-58
2023/04/28 07:25:43;;;;;;;20.92;18.45;;;13.30;99.90;;;;;;5115235;28;20197;-59
2023/04/28 07:28:09;;;;;;;22.17;18.00;;;13.20;99.90;;;;;;5115228;28;20176;-58
2023/04/28 07:30:35;;;;;;;22.88;17.63;;;13.30;99.90;;;;;;5115160;28;20226;-58
2023/04/28 07:33:01;;;;;;;20.17;15.73;;;13.30;99.90;;;;;;5097090;28;20173;-58
2023/04/28 07:35:27;;;;;;;18.48;16.52;;;13.30;99.90;;;;;;5115237;28;20697;-58
2023/04/28 07:37:53;;;;;;;17.88;15.65;;;13.50;99.90;;;;;;5115003;28;20188;-58
2023/04/28 07:40:19;;;;;;;15.60;13.85;;;13.50;99.90;;;;;;5115345;28;20527;-58
2023/04/28 07:42:46;;;;;;;14.02;12.52;;;13.50;99.90;;;;;;5114922;28;20177;-58
2023/04/28 07:45:13;;;;;;;12.25;10.95;;;13.70;99.90;;;;;;5114973;28;20220;-58
2023/04/28 07:47:39;;;;;;;10.65;9.65;;;13.90;99.90;;;;;;5115113;28;20169;-58
2023/04/28 07:50:05;;;;;;;8.57;7.70;;;14.10;99.90;;;;;;5115095;28;20370;-58
2023/04/28 07:52:32;;;;;;;7.88;7.07;;;14.10;99.90;;;;;;5114881;28;20162;-58
2023/04/28 07:54:58;;;;;;;6.25;5.65;;;14.30;99.90;;;;;;5114822;28;20647;-58
2023/04/28 07:57:25;;;;;;;5.60;5.10;;;14.30;99.90;;;;;;5114527;28;20169;-58
2023/04/28 07:59:51;;;;;;;4.72;4.30;;;14.30;99.90;;;;;;5114893;28;20175;-58
2023/04/28 08:02:19;;;;;;;4.97;4.47;;;14.30;99.90;;;;;;5114686;28;20170;-58
2023/04/28 08:04:44;;;;;;;4.78;4.38;;;14.40;99.90;;;;;;5114523;28;20593;-58
2023/04/28 08:07:10;;;;;;;4.10;3.70;;;14.40;99.90;;;;;;5114542;28;20176;-58
2023/04/28 08:09:36;;;;;;;4.03;3.72;;;14.50;99.90;;;;;;5114518;28;20203;-58
2023/04/28 08:12:02;;;;;;;3.85;3.55;;;14.60;99.90;;;;;;5114355;28;20252;-58
2023/04/28 08:14:28;;;;;;;3.47;3.17;;;14.60;99.90;;;;;;5114622;28;20169;-58
2023/04/28 08:16:54;;;;;;;3.78;3.47;;;14.60;99.90;;;;;;5114350;28;20178;-58
2023/04/28 08:19:20;;;;;;;4.03;3.35;;;14.70;99.90;;;;;;5114412;28;20173;-58
2023/04/28 08:21:49;;;;;;;3.50;3.20;;;14.60;99.90;;;;;;5114315;28;20267;-58
2023/04/28 08:24:15;;;;;;;3.50;3.20;;;14.60;99.90;;;;;;5114193;28;20627;-58
2023/04/28 08:26:40;;;;;;;3.53;3.22;;;14.70;99.90;;;;;;5113970;28;20188;-58
2023/04/28 08:29:06;;;;;;;3.40;2.92;;;14.80;99.90;;;;;;5114091;28;20180;-58
2023/04/28 08:31:32;;;;;;;3.15;2.80;;;14.90;99.90;;;;;;5114242;28;20169;-58
2023/04/28 08:33:58;;;;;;;3.75;3.30;;;15.00;99.90;;;;;;5114099;28;20177;-58
2023/04/28 08:36:25;;;;;;;3.80;3.10;;;15.10;99.90;;;;;;5113965;28;20185;-58
2023/04/28 08:38:51;;;;;;;3.85;3.28;;;15.10;99.90;;;;;;5113955;28;20276;-58
2023/04/28 08:41:18;;;;;;;3.45;3.15;;;15.20;99.90;;;;;;5113743;28;20539;-58
2023/04/28 08:43:44;;;;;;;3.13;2.92;;;15.10;99.90;;;;;;5114278;28;20259;-58
2023/04/28 08:46:10;;;;;;;3.65;3.00;;;15.10;99.90;;;;;;5113961;28;20208;-58
2023/04/28 08:48:45;;;;;;;4.05;3.65;;;15.20;99.90;;;;;;5113690;28;20629;-58
2023/04/28 08:51:15;;;;;;;4.20;3.80;;;15.30;99.90;;;;;;5113995;28;20271;-58
2023/04/28 08:53:48;;;;;;;3.55;3.25;;;15.30;99.90;;;;;;5113690;28;20176;-58
2023/04/28 08:56:15;;;;;;;4.03;3.72;;;15.40;99.90;;;;;;5113905;28;20200;-58
2023/04/28 08:58:42;;;;;;;3.80;3.45;;;15.40;99.90;;;;;;5113836;28;20244;-58
2023/04/28 09:01:08;;;;;;;3.45;3.20;;;15.50;99.90;;;;;;5113749;28;20173;-58
2023/04/28 09:03:33;;;;;;;3.80;3.50;;;15.50;99.90;;;;;;5113558;28;20191;-58
2023/04/28 09:06:01;;;;;;;3.35;3.13;;;15.40;99.90;;;;;;5113544;28;20201;-58
2023/04/28 09:08:27;;;;;;;3.33;3.03;;;15.40;99.90;;;;;;5113564;28;20172;-58
2023/04/28 09:11:07;;;;;;;2.72;2.53;;;15.50;99.90;;;;;;5113718;28;20165;-58
2023/04/28 09:13:33;;;;;;;2.30;2.10;;;15.50;99.90;;;;;;5113624;28;20176;-58
2023/04/28 09:16:00;;;;;;;1.80;1.70;;;15.50;99.90;;;;;;5113558;28;20189;-58
2023/04/28 09:18:26;;;;;;;2.35;2.08;;;15.60;99.90;;;;;;5113460;28;20185;-58
2023/04/28 09:21:01;;;;;;;2.33;1.60;;;15.70;99.90;;;;;;5113370;28;20180;-58
2023/04/28 09:23:26;;;;;;;1.77;1.30;;;15.70;99.90;;;;;;5113924;28;20246;-58
2023/04/28 09:26:06;;;;;;;2.95;1.67;;;15.90;99.90;;;;;;5113584;28;20239;-58
2023/04/28 09:28:33;;;;;;;1.40;1.30;;;15.90;99.90;;;;;;5113416;28;20192;-58
2023/04/28 09:30:59;;;;;;;1.88;1.30;;;16.00;99.90;;;;;;5113427;28;20173;-58
2023/04/28 09:33:25;;;;;;;1.40;1.30;;;16.10;99.90;;;;;;5113334;28;20259;-58
2023/04/28 09:35:51;;;;;;;1.08;1.00;;;16.10;99.90;;;;;;5113315;28;20181;-59
2023/04/28 09:38:19;;;;;;;1.58;1.10;;;16.00;99.90;;;;;;5114564;28;20635;-57
2023/04/28 09:40:51;;;;;;;1.00;1.00;;;15.90;99.90;;;;;;5117317;28;20177;-57
2023/04/28 09:43:32;;;;;;;1.45;1.30;;;15.90;99.90;;;;;;5117541;28;20257;-57
2023/04/28 09:46:02;;;;;;;1.40;1.30;;;15.70;99.90;;;;;;5117191;28;20288;-60
2023/04/28 09:48:36;;;;;;;1.52;1.42;;;15.60;99.90;;;;;;5117174;28;20217;-57
2023/04/28 09:51:07;;;;;;;1.80;1.70;;;15.50;99.90;;;;;;5117255;28;20267;-58
2023/04/28 09:53:34;;;;;;;2.22;2.08;;;15.40;99.90;;;;;;5117512;28;20204;-59
2023/04/28 09:56:02;;;;;;;2.30;2.10;;;15.30;99.90;;;;;;5099147;28;20558;-57
2023/04/28 09:58:29;;;;;;;2.05;1.95;;;15.30;99.90;;;;;;5116981;28;20165;-58
2023/04/28 10:00:59;;;;;;;2.28;2.08;;;15.30;99.90;;;;;;5117384;28;20175;-58
2023/04/28 10:03:26;;;;;;;3.28;1.90;;;15.30;99.90;;;;;;5117117;28;20170;-58
2023/04/28 10:05:52;;;;;;;2.10;1.92;;;15.30;99.90;;;;;;5117042;28;20235;-58
2023/04/28 10:08:22;;;;;;;2.15;2.05;;;15.40;99.90;;;;;;5116806;28;20268;-58
2023/04/28 10:10:55;;;;;;;2.50;2.30;;;15.40;99.90;;;;;;5116588;28;20188;-58
2023/04/28 10:13:22;;;;;;;2.33;2.13;;;15.40;99.90;;;;;;5116900;28;20213;-58
2023/04/28 10:15:49;;;;;;;2.20;2.08;;;15.40;99.90;;;;;;5116833;28;20246;-58
2023/04/28 10:18:15;;;;;;;2.42;2.22;;;15.40;99.90;;;;;;5116647;28;20177;-58
2023/04/28 10:20:47;;;;;;;2.10;2.00;;;15.30;99.90;;;;;;5116542;28;20169;-58
2023/04/28 10:23:21;;;;;;;2.00;1.90;;;15.20;99.90;;;;;;5116499;28;20176;-58
2023/04/28 10:25:52;;;;;;;2.38;2.17;;;15.20;99.90;;;;;;5116361;28;20205;-58
2023/04/28 10:28:18;;;;;;;2.80;2.60;;;15.20;99.90;;;;;;5116689;28;20196;-62
2023/04/28 10:31:11;;;;;;;2.45;1.83;;;15.20;99.90;;;;;;5116412;28;20177;-58
2023/04/28 10:33:37;;;;;;;2.20;2.00;;;15.10;99.90;;;;;;5116389;28;20181;-58
2023/04/28 10:36:04;;;;;;;2.65;1.92;;;15.00;99.90;;;;;;5116465;28;20169;-57
2023/04/28 10:38:29;;;;;;;1.80;1.70;;;15.10;99.90;;;;;;5116511;28;20202;-58
2023/04/28 10:41:01;;;;;;;2.40;2.20;;;15.20;99.90;;;;;;5116257;28;20658;-58
2023/04/28 10:43:38;;;;;;;2.53;2.33;;;15.20;99.90;;;;;;5116151;28;20174;-58
2023/04/28 10:46:06;;;;;;;2.55;2.35;;;15.20;99.90;;;;;;5097774;28;20205;-58
2023/04/28 10:48:31;;;;;;;2.08;1.98;;;15.30;99.90;;;;;;5115734;28;20225;-58
2023/04/28 10:51:03;;;;;;;2.47;2.28;;;15.20;99.90;;;;;;5114927;28;20678;-58
2023/04/28 10:53:53;;;;;;;1.92;1.83;;;15.40;99.90;;;;;;5116114;28;20168;-58
2023/04/28 10:56:26;;;;;;;1.88;1.60;;;15.30;99.90;;;;;;5115965;28;20192;-58
2023/04/28 10:58:52;;;;;;;1.70;1.60;;;15.20;99.90;;;;;;5115782;28;20165;-58
2023/04/28 11:01:17;;;;;;;1.50;1.40;;;15.20;99.90;;;;;;5116075;28;20343;-58
2023/04/28 11:03:47;;;;;;;1.70;1.60;;;15.30;99.90;;;;;;5115866;28;20193;-58
2023/04/28 11:06:24;;;;;;;4.53;1.73;;;15.20;99.90;;;;;;5115744;28;20255;-58
2023/04/28 11:08:51;;;;;;;1.80;1.50;;;15.20;99.90;;;;;;5115793;28;20251;-58
2023/04/28 11:11:23;;;;;;;2.15;1.63;;;15.20;99.90;;;;;;5115604;28;20540;-58
2023/04/28 11:13:49;;;;;;;2.50;1.55;;;15.30;99.90;;;;;;5115759;28;20169;-58
2023/04/28 11:16:33;;;;;;;1.50;1.40;;;15.30;99.90;;;;;;5115628;28;20173;-57
2023/04/28 11:19:04;;;;;;;1.73;1.63;;;15.30;99.90;;;;;;5115605;28;20218;-58
2023/04/28 11:21:31;;;;;;;1.80;1.70;;;15.20;99.90;;;;;;5115531;28;20558;-58
2023/04/28 11:23:57;;;;;;;1.90;1.80;;;15.20;99.90;;;;;;5115200;28;20180;-58
2023/04/28 11:26:23;;;;;;;1.92;1.80;;;15.20;99.90;;;;;;5115443;28;20204;-58
2023/04/28 11:28:57;;;;;;;2.92;1.90;;;15.20;99.90;;;;;;5115422;28;20169;-57
2023/04/28 11:31:25;;;;;;;2.65;1.50;;;15.20;99.90;;;;;;5115364;28;20204;-57
2023/04/28 11:33:55;;;;;;;1.58;1.45;;;15.20;99.90;;;;;;5115209;28;20169;-57
2023/04/28 11:36:29;;;;;;;1.70;1.60;;;15.00;99.90;;;;;;5115058;28;20230;-58
2023/04/28 11:38:55;;;;;;;1.98;1.50;;;15.10;99.90;;;;;;5115340;28;20165;-57
2023/04/28 11:41:22;;;;;;;4.80;2.33;;;15.00;99.90;;;;;;5115467;28;20222;-57
2023/04/28 11:43:48;;;;;;;4.55;2.00;;;15.10;99.90;;;;;;5115153;28;20185;-58
2023/04/28 11:46:21;;;;;;;2.90;2.13;;;15.20;99.90;;;;;;5114867;28;20213;-58
2023/04/28 11:48:48;;;;;;;2.75;1.88;;;15.30;99.90;;;;;;5114820;28;20295;-58
2023/04/28 11:51:29;;;;;;;2.53;2.33;;;15.40;99.90;;;;;;5114955;28;20264;-58
2023/04/28 11:53:55;;;;;;;3.25;2.17;;;15.40;99.90;;;;;;5114804;28;20180;-58
2023/04/28 11:56:20;;;;;;;2.65;2.42;;;15.30;99.90;;;;;;5114826;28;20536;-58
2023/04/28 11:59:03;;;;;;;2.72;2.30;;;15.30;99.90;;;;;;5114666;28;20659;-58
2023/04/28 12:01:29;;;;;;;2.38;2.17;;;15.30;99.90;;;;;;5114380;28;20203;-58
2023/04/28 12:03:55;;;;;;;2.38;2.17;;;15.40;99.90;;;;;;5114702;28;20180;-58
2023/04/28 12:06:21;;;;;;;2.22;2.03;;;15.40;99.90;;;;;;5114696;28;20571;-58
2023/04/28 12:08:48;;;;;;;2.60;2.40;;;15.50;99.90;;;;;;5096685;28;20177;-58
2023/04/28 12:11:14;;;;;;;2.30;2.13;;;15.60;99.90;;;;;;5114584;28;20226;-58
2023/04/28 12:13:40;;;;;;;2.22;2.03;;;15.70;99.90;;;;;;5114510;28;20260;-58
2023/04/28 12:16:07;;;;;;;3.97;2.60;;;15.90;99.90;;;;;;5114274;28;20685;-58
2023/04/28 12:18:37;;;;;;;1.80;1.70;;;16.10;99.90;;;;;;5114455;28;20524;-58
2023/04/28 12:21:18;;;;;;;2.13;1.92;;;16.20;99.90;;;;;;5114349;28;20193;-57
2023/04/28 12:23:44;;;;;;;2.25;1.85;;;16.10;99.90;;;;;;5114246;28;20244;-58
2023/04/28 12:26:10;;;;;;;2.67;1.70;;;16.20;99.90;;;;;;5114302;28;20309;-58
2023/04/28 12:28:40;;;;;;;1.63;1.52;;;16.10;99.90;;;;;;5114065;28;20184;-58
2023/04/28 12:31:07;;;;;;;2.55;1.80;;;16.20;99.90;;;;;;5114388;28;20169;-58
2023/04/28 12:33:38;;;;;;;2.55;1.67;;;16.10;99.90;;;;;;5114146;28;20205;-58